createdAt,value
2022-08-29T00:00:48.909Z,55.40
2022-08-29T00:01:48.918Z,61.76
2022-08-29T00:02:48.916Z,56.06
2022-08-29T00:03:48.989Z,55.04
2022-08-29T00:04:48.894Z,62.87
2022-08-29T00:05:50.207Z,55.35
2022-08-29T00:06:48.896Z,54.79
2022-08-29T00:07:48.896Z,55.19
2022-08-29T00:08:48.894Z,55.97
2022-08-29T00:09:48.866Z,60.28
2022-08-29T00:10:48.848Z,55.54
2022-08-29T00:11:48.864Z,63.29
2022-08-29T00:12:48.854Z,54.88
2022-08-29T00:13:48.831Z,56.69
2022-08-29T00:14:48.859Z,71.73
2022-08-29T00:15:48.844Z,56.77
2022-08-29T00:16:48.955Z,55.72
2022-08-29T00:17:48.811Z,54.82
2022-08-29T00:18:48.828Z,54.91
2022-08-29T00:19:48.833Z,54.34
2022-08-29T00:20:48.802Z,55.10
2022-08-29T00:21:48.778Z,54.92
2022-08-29T00:22:48.792Z,54.87
2022-08-29T00:23:48.791Z,55.06
2022-08-29T00:24:48.765Z,56.06
2022-08-29T00:25:48.876Z,55.72
2022-08-29T00:26:48.768Z,55.21
2022-08-29T00:27:49.789Z,54.97
2022-08-29T00:28:48.764Z,60.00
2022-08-29T00:29:48.760Z,63.43
2022-08-29T00:30:48.771Z,56.81
2022-08-29T00:31:48.793Z,67.60
2022-08-29T00:32:48.743Z,56.28
2022-08-29T00:33:48.726Z,55.67
2022-08-29T00:34:49.668Z,54.91
2022-08-29T00:35:48.730Z,54.89
2022-08-29T00:36:49.008Z,54.68
2022-08-29T00:37:48.724Z,54.83
2022-08-29T00:38:49.527Z,55.37
2022-08-29T00:39:48.694Z,55.46
2022-08-29T00:40:51.715Z,59.36
2022-08-29T00:41:48.698Z,68.21
2022-08-29T00:42:48.673Z,57.88
2022-08-29T00:43:48.682Z,61.96
2022-08-29T00:44:48.658Z,55.61
2022-08-29T00:45:48.722Z,56.18
2022-08-29T00:46:48.644Z,66.04
2022-08-29T00:47:48.770Z,59.49
2022-08-29T00:48:48.649Z,56.74
2022-08-29T00:49:48.650Z,55.06
2022-08-29T00:50:48.635Z,54.69
2022-08-29T00:51:48.618Z,55.11
2022-08-29T00:52:48.655Z,56.43
2022-08-29T00:53:48.624Z,62.01
2022-08-29T00:54:48.615Z,69.08
2022-08-29T00:55:50.599Z,56.18
2022-08-29T00:56:48.624Z,56.02
2022-08-29T00:57:48.594Z,55.44
2022-08-29T00:58:48.711Z,62.87
2022-08-29T00:59:48.597Z,55.97
2022-08-29T01:00:48.622Z,55.26
2022-08-29T01:01:48.571Z,55.17
2022-08-29T01:02:48.554Z,59.57
2022-08-29T01:03:48.590Z,71.59
2022-08-29T01:04:48.549Z,56.79
2022-08-29T01:05:48.526Z,56.05
2022-08-29T01:06:48.524Z,62.57
2022-08-29T01:07:48.550Z,56.20
2022-08-29T01:08:48.536Z,62.12
2022-08-29T01:09:48.645Z,55.32
2022-08-29T01:10:48.502Z,55.33
2022-08-29T01:11:48.522Z,56.09
2022-08-29T01:12:48.493Z,63.50
2022-08-29T01:13:48.503Z,60.64
2022-08-29T01:14:48.514Z,61.37
2022-08-29T01:15:48.496Z,54.79
2022-08-29T01:16:48.594Z,55.33
2022-08-29T01:17:48.490Z,57.68
2022-08-29T01:18:48.474Z,68.49
2022-08-29T01:19:48.472Z,63.41
2022-08-29T01:20:48.576Z,55.19
2022-08-29T01:21:48.448Z,54.85
2022-08-29T01:22:48.510Z,55.33
2022-08-29T01:23:48.462Z,57.94
2022-08-29T01:24:48.454Z,62.51
2022-08-29T01:25:49.108Z,55.11
2022-08-29T01:26:48.419Z,63.64
2022-08-29T01:27:48.404Z,55.68
2022-08-29T01:28:48.415Z,54.80
2022-08-29T01:29:48.406Z,63.36
2022-08-29T01:30:48.420Z,70.12
2022-08-29T01:31:57.451Z,56.00
2022-08-29T01:32:49.394Z,55.58
2022-08-29T01:33:48.400Z,54.93
2022-08-29T01:34:48.380Z,54.95
2022-08-29T01:35:48.380Z,56.25
2022-08-29T01:36:49.430Z,60.96
2022-08-29T01:37:48.365Z,56.01
2022-08-29T01:38:48.359Z,70.90
2022-08-29T01:39:48.350Z,56.02
2022-08-29T01:40:48.371Z,55.97
2022-08-29T01:41:48.353Z,63.71
2022-08-29T01:42:48.326Z,55.78
2022-08-29T01:43:48.316Z,65.92
2022-08-29T01:44:48.314Z,57.41
2022-08-29T01:45:48.408Z,59.64
2022-08-29T01:46:48.305Z,57.88
2022-08-29T01:47:48.303Z,71.24
2022-08-29T01:48:48.311Z,62.36
2022-08-29T01:49:48.307Z,55.65
2022-08-29T01:50:48.294Z,55.35
2022-08-29T01:51:48.311Z,55.16
2022-08-29T01:52:48.279Z,54.96
2022-08-29T01:53:48.282Z,55.10
2022-08-29T01:54:48.266Z,54.93
2022-08-29T01:55:48.308Z,55.46
2022-08-29T01:56:48.299Z,56.75
2022-08-29T01:57:48.248Z,57.04
2022-08-29T01:58:48.249Z,61.15
2022-08-29T01:59:48.239Z,61.92
2022-08-29T02:00:48.307Z,64.97
2022-08-29T02:01:48.238Z,61.04
2022-08-29T02:02:48.259Z,62.63
2022-08-29T02:03:48.211Z,67.73
2022-08-29T02:04:48.204Z,57.21
2022-08-29T02:05:48.201Z,56.26
2022-08-29T02:06:48.214Z,58.31
2022-08-29T02:07:48.229Z,70.84
2022-08-29T02:08:48.186Z,69.23
2022-08-29T02:09:48.192Z,67.02
2022-08-29T02:10:48.190Z,57.26
2022-08-29T02:11:48.160Z,57.14
2022-08-29T02:12:48.164Z,66.58
2022-08-29T02:13:48.165Z,64.13
2022-08-29T02:14:48.139Z,58.87
2022-08-29T02:15:48.150Z,56.91
2022-08-29T02:16:48.238Z,70.74
2022-08-29T02:17:48.568Z,57.76
2022-08-29T02:18:48.240Z,70.28
2022-08-29T02:19:48.122Z,57.58
2022-08-29T02:20:48.109Z,56.11
2022-08-29T02:21:48.145Z,56.87
2022-08-29T02:22:48.109Z,68.36
2022-08-29T02:23:48.105Z,67.32
2022-08-29T02:24:48.215Z,71.20
2022-08-29T02:25:48.101Z,58.99
2022-08-29T02:26:48.085Z,68.13
2022-08-29T02:27:48.075Z,57.31
2022-08-29T02:28:48.098Z,56.90
2022-08-29T02:29:48.107Z,57.04
2022-08-29T02:30:48.066Z,61.13
2022-08-29T02:31:48.125Z,57.90
2022-08-29T02:32:48.062Z,72.18
2022-08-29T02:33:48.045Z,57.18
2022-08-29T02:34:48.647Z,64.46
2022-08-29T02:35:48.169Z,72.08
2022-08-29T02:36:48.172Z,58.40
2022-08-29T02:37:48.016Z,64.46
2022-08-29T02:38:48.016Z,66.81
2022-08-29T02:39:47.995Z,65.60
2022-08-29T02:40:48.087Z,72.69
2022-08-29T02:41:47.984Z,64.55
2022-08-29T02:42:48.008Z,70.03
2022-08-29T02:43:47.985Z,56.94
2022-08-29T02:44:47.985Z,65.06
2022-08-29T02:45:47.964Z,65.89
2022-08-29T02:46:48.108Z,57.58
2022-08-29T02:47:47.961Z,68.30
2022-08-29T02:48:54.097Z,68.53
2022-08-29T02:49:48.940Z,70.96
2022-08-29T02:50:47.953Z,60.49
2022-08-29T02:51:47.974Z,68.76
2022-08-29T02:52:47.924Z,68.34
2022-08-29T02:53:47.915Z,57.16
2022-08-29T02:54:47.917Z,63.38
2022-08-29T02:55:47.917Z,68.50
2022-08-29T02:56:47.920Z,64.63
2022-08-29T02:57:48.011Z,57.47
2022-08-29T02:58:47.924Z,63.32
2022-08-29T02:59:47.899Z,65.64
2022-08-29T03:00:47.937Z,57.32
2022-08-29T03:01:47.964Z,64.51
2022-08-29T03:02:47.971Z,72.00
2022-08-29T03:03:47.872Z,67.71
2022-08-29T03:04:47.855Z,68.45
2022-08-29T03:05:47.861Z,66.50
2022-08-29T03:06:47.873Z,63.58
2022-08-29T03:07:50.792Z,72.45
2022-08-29T03:08:48.964Z,77.71
2022-08-29T03:09:47.826Z,67.18
2022-08-29T03:10:47.835Z,75.30
2022-08-29T03:11:47.839Z,67.56
2022-08-29T03:12:47.851Z,69.69
2022-08-29T03:13:47.793Z,71.86
2022-08-29T03:14:47.936Z,57.77
2022-08-29T03:15:47.858Z,61.95
2022-08-29T03:16:47.794Z,61.65
2022-08-29T03:17:47.785Z,66.13
2022-08-29T03:18:47.831Z,56.96
2022-08-29T03:19:47.880Z,62.28
2022-08-29T03:20:47.778Z,72.29
2022-08-29T03:21:47.782Z,57.91
2022-08-29T03:22:47.753Z,57.39
2022-08-29T03:23:47.750Z,70.88
2022-08-29T03:24:47.758Z,64.18
2022-08-29T03:25:47.778Z,70.31
2022-08-29T03:26:47.732Z,78.13
2022-08-29T03:27:48.745Z,66.28
2022-08-29T03:28:47.733Z,74.66
2022-08-29T03:29:47.721Z,70.71
2022-08-29T03:30:47.740Z,68.06
2022-08-29T03:31:47.746Z,63.08
2022-08-29T03:32:47.722Z,72.47
2022-08-29T03:33:47.693Z,76.31
2022-08-29T03:34:47.694Z,76.02
2022-08-29T03:35:47.693Z,75.56
2022-08-29T03:36:47.792Z,65.07
2022-08-29T03:37:47.685Z,79.86
2022-08-29T03:38:47.679Z,76.05
2022-08-29T03:39:47.659Z,71.80
2022-08-29T03:40:47.676Z,72.84
2022-08-29T03:41:47.685Z,72.18
2022-08-29T03:42:47.652Z,76.66
2022-08-29T03:43:47.657Z,65.06
2022-08-29T03:44:47.635Z,73.04
2022-08-29T03:45:47.631Z,75.04
2022-08-29T03:46:47.738Z,67.15
2022-08-29T03:47:47.749Z,67.16
2022-08-29T03:48:47.611Z,69.20
2022-08-29T03:49:47.639Z,80.98
2022-08-29T03:50:47.615Z,68.17
2022-08-29T03:51:47.612Z,76.19
2022-08-29T03:52:47.610Z,71.36
2022-08-29T03:53:47.574Z,76.12
2022-08-29T03:54:47.594Z,71.80
2022-08-29T03:55:47.572Z,63.99
2022-08-29T03:56:47.575Z,71.08
2022-08-29T03:57:47.589Z,71.86
2022-08-29T03:58:52.549Z,75.08
2022-08-29T03:59:47.573Z,71.54
2022-08-29T04:00:47.548Z,69.43
2022-08-29T04:01:47.572Z,75.08
2022-08-29T04:02:47.549Z,74.51
2022-08-29T04:03:47.561Z,79.11
2022-08-29T04:04:47.547Z,70.51
2022-08-29T04:05:47.515Z,67.97
2022-08-29T04:06:47.517Z,73.97
2022-08-29T04:07:47.519Z,73.38
2022-08-29T04:08:47.499Z,79.30
2022-08-29T04:09:47.523Z,73.74
2022-08-29T04:10:47.495Z,73.84
2022-08-29T04:11:47.482Z,70.95
2022-08-29T04:12:51.203Z,71.27
2022-08-29T04:13:47.507Z,74.75
2022-08-29T04:14:47.491Z,77.52
2022-08-29T04:15:47.509Z,77.15
2022-08-29T04:16:47.475Z,66.20
2022-08-29T04:17:52.738Z,75.53
2022-08-29T04:18:47.451Z,80.50
2022-08-29T04:22:44.870Z,72.62
2022-08-29T04:23:44.844Z,75.12
2022-08-29T04:24:44.850Z,80.79
2022-08-29T04:25:44.866Z,73.71
2022-08-29T04:26:44.833Z,75.65
2022-08-29T04:27:45.004Z,83.82
2022-08-29T04:28:44.833Z,79.30
2022-08-29T04:29:44.831Z,80.15
2022-08-29T04:30:50.390Z,76.10
2022-08-29T04:31:44.868Z,80.19
2022-08-29T04:32:44.798Z,74.21
2022-08-29T04:33:44.820Z,64.97
2022-08-29T04:34:45.897Z,66.19
2022-08-29T04:35:45.897Z,68.78
2022-08-29T04:36:45.898Z,77.11
2022-08-29T04:37:45.883Z,83.76
2022-08-29T04:38:45.913Z,76.40
2022-08-29T04:39:45.875Z,77.15
2022-08-29T04:40:45.839Z,76.23
2022-08-29T04:41:45.865Z,75.07
2022-08-29T04:42:45.834Z,73.02
2022-08-29T04:43:45.839Z,80.84
2022-08-29T04:44:45.891Z,77.28
2022-08-29T04:45:45.811Z,78.15
2022-08-29T04:46:45.845Z,79.22
2022-08-29T04:47:45.800Z,81.75
2022-08-29T04:48:45.808Z,67.36
2022-08-29T04:49:45.926Z,79.95
2022-08-29T04:50:45.796Z,81.55
2022-08-29T04:51:45.797Z,71.70
2022-08-29T04:52:45.774Z,78.25
2022-08-29T04:53:45.775Z,73.40
2022-08-29T04:54:45.777Z,83.12
2022-08-29T04:55:45.777Z,77.64
2022-08-29T04:56:47.388Z,71.78
2022-08-29T04:57:45.762Z,79.96
2022-08-29T04:58:45.725Z,74.07
2022-08-29T04:59:45.729Z,76.72
2022-08-29T05:00:45.737Z,77.29
2022-08-29T05:01:45.803Z,78.74
2022-08-29T05:02:45.755Z,75.76
2022-08-29T05:03:45.708Z,84.12
2022-08-29T05:04:45.717Z,73.73
2022-08-29T05:05:45.705Z,76.23
2022-08-29T05:06:45.724Z,83.00
2022-08-29T05:07:45.691Z,82.83
2022-08-29T05:08:45.680Z,83.38
2022-08-29T05:09:45.678Z,79.01
2022-08-29T05:10:45.682Z,78.17
2022-08-29T05:11:45.690Z,81.33
2022-08-29T05:12:45.659Z,79.48
2022-08-29T05:13:45.657Z,74.20
2022-08-29T05:14:45.648Z,63.82
2022-08-29T05:15:45.672Z,68.31
2022-08-29T05:16:45.623Z,80.89
2022-08-29T05:17:45.717Z,78.62
2022-08-29T05:18:45.614Z,74.92
2022-08-29T05:19:45.622Z,73.96
2022-08-29T05:20:45.579Z,75.55
2022-08-29T05:21:45.601Z,88.85
2022-08-29T05:22:45.710Z,69.30
2022-08-29T05:23:45.591Z,78.13
2022-08-29T05:24:45.583Z,74.71
2022-08-29T05:25:45.569Z,74.61
2022-08-29T05:26:45.582Z,79.97
2022-08-29T05:27:45.553Z,80.61
2022-08-29T05:28:45.571Z,83.67
2022-08-29T05:29:45.533Z,81.17
2022-08-29T05:30:45.584Z,80.53
2022-08-29T05:31:45.872Z,80.79
2022-08-29T05:32:45.545Z,76.69
2022-08-29T05:33:45.629Z,78.68
2022-08-29T05:34:45.506Z,74.71
2022-08-29T05:35:45.522Z,76.25
2022-08-29T05:36:45.507Z,79.33
2022-08-29T05:37:46.499Z,80.94
2022-08-29T05:38:45.491Z,78.25
2022-08-29T05:39:45.594Z,77.05
2022-08-29T05:40:45.490Z,78.06
2022-08-29T05:41:45.475Z,78.81
2022-08-29T05:42:45.479Z,77.67
2022-08-29T05:43:45.473Z,74.61
2022-08-29T05:44:45.557Z,74.62
2022-08-29T05:45:45.473Z,86.89
2022-08-29T05:46:45.529Z,83.65
2022-08-29T05:47:49.916Z,80.60
2022-08-29T05:48:45.441Z,74.64
2022-08-29T05:49:45.429Z,82.35
2022-08-29T05:50:45.452Z,78.21
2022-08-29T05:51:45.419Z,80.44
2022-08-29T05:52:45.401Z,78.75
2022-08-29T05:53:45.417Z,76.78
2022-08-29T05:54:45.414Z,77.65
2022-08-29T05:55:45.434Z,74.66
2022-08-29T05:56:45.392Z,78.94
2022-08-29T05:57:45.376Z,76.00
2022-08-29T05:58:45.392Z,71.76
2022-08-29T05:59:45.400Z,77.74
2022-08-29T06:00:45.377Z,75.03
2022-08-29T06:01:45.462Z,78.83
2022-08-29T06:02:45.487Z,81.01
2022-08-29T06:03:46.152Z,78.00
2022-08-29T06:04:47.014Z,83.75
2022-08-29T06:05:45.345Z,80.02
2022-08-29T06:06:45.433Z,68.52
2022-08-29T06:07:45.337Z,68.91
2022-08-29T06:08:45.329Z,79.45
2022-08-29T06:09:45.337Z,79.03
2022-08-29T06:10:45.318Z,84.78
2022-08-29T06:11:46.343Z,71.93
2022-08-29T06:12:45.314Z,87.28
2022-08-29T06:13:45.914Z,79.06
2022-08-29T06:14:50.090Z,82.30
2022-08-29T06:15:45.356Z,75.47
2022-08-29T06:16:45.274Z,77.57
2022-08-29T06:17:45.375Z,83.84
2022-08-29T06:18:45.256Z,71.28
2022-08-29T06:19:45.264Z,74.14
2022-08-29T06:20:45.253Z,74.81
2022-08-29T06:21:45.292Z,78.73
2022-08-29T06:22:45.348Z,71.04
2022-08-29T06:23:45.244Z,76.62
2022-08-29T06:24:45.909Z,69.20
2022-08-29T06:25:45.226Z,64.21
2022-08-29T06:26:45.241Z,74.36
2022-08-29T06:27:45.219Z,82.55
2022-08-29T06:28:45.332Z,70.21
2022-08-29T06:29:45.198Z,79.32
2022-08-29T06:30:45.278Z,75.39
2022-08-29T06:31:45.201Z,78.93
2022-08-29T06:32:45.180Z,78.00
2022-08-29T06:33:45.289Z,78.26
2022-08-29T06:34:45.160Z,70.45
2022-08-29T06:35:46.174Z,76.06
2022-08-29T06:36:45.157Z,79.33
2022-08-29T06:37:45.193Z,73.67
2022-08-29T06:38:45.134Z,70.81
2022-08-29T06:39:45.256Z,66.55
2022-08-29T06:40:45.200Z,81.20
2022-08-29T06:41:45.123Z,76.92
2022-08-29T06:42:45.112Z,77.68
2022-08-29T06:43:46.102Z,70.82
2022-08-29T06:44:45.217Z,69.51
2022-08-29T06:45:45.090Z,76.32
2022-08-29T06:46:45.092Z,79.53
2022-08-29T06:47:45.080Z,80.45
2022-08-29T06:48:45.090Z,77.80
2022-08-29T06:49:45.078Z,70.19
2022-08-29T06:50:46.021Z,77.22
2022-08-29T06:51:45.061Z,65.05
2022-08-29T06:52:47.023Z,79.86
2022-08-29T06:53:45.038Z,72.40
2022-08-29T06:54:45.046Z,76.08
2022-08-29T06:55:45.070Z,73.32
2022-08-29T06:56:45.013Z,77.46
2022-08-29T06:57:45.049Z,76.39
2022-08-29T06:58:45.010Z,72.29
2022-08-29T06:59:45.017Z,73.00
2022-08-29T07:00:49.041Z,77.33
2022-08-29T07:01:45.156Z,78.21
2022-08-29T07:02:45.057Z,74.80
2022-08-29T07:03:45.001Z,80.50
2022-08-29T07:04:44.974Z,75.86
2022-08-29T07:05:44.992Z,67.60
2022-08-29T07:06:45.107Z,72.10
2022-08-29T07:07:45.002Z,72.49
2022-08-29T07:08:54.948Z,78.30
2022-08-29T07:09:44.965Z,78.62
2022-08-29T07:10:44.980Z,71.37
2022-08-29T07:11:44.935Z,65.70
2022-08-29T07:12:44.974Z,81.31
2022-08-29T07:13:44.931Z,68.32
2022-08-29T07:14:44.931Z,73.14
2022-08-29T07:15:44.941Z,74.49
2022-08-29T07:16:44.928Z,65.60
2022-08-29T07:17:44.952Z,72.87
2022-08-29T07:18:44.908Z,76.48
2022-08-29T07:19:44.897Z,70.20
2022-08-29T07:20:44.917Z,70.47
2022-08-29T07:21:45.427Z,76.55
2022-08-29T07:22:44.892Z,73.80
2022-08-29T07:23:44.918Z,70.52
2022-08-29T07:24:44.873Z,69.59
2022-08-29T07:25:44.864Z,80.51
2022-08-29T07:26:44.864Z,73.50
2022-08-29T07:27:44.870Z,70.85
2022-08-29T07:28:46.187Z,67.49
2022-08-29T07:29:47.656Z,79.54
2022-08-29T07:30:46.896Z,74.81
2022-08-29T07:31:44.827Z,71.84
2022-08-29T07:32:44.832Z,72.28
2022-08-29T07:33:44.843Z,70.71
2022-08-29T07:34:44.935Z,68.61
2022-08-29T07:35:44.821Z,75.93
2022-08-29T07:36:44.816Z,72.22
2022-08-29T07:37:47.782Z,74.21
2022-08-29T07:38:45.808Z,71.88
2022-08-29T07:39:44.910Z,74.12
2022-08-29T07:40:44.833Z,77.19
2022-08-29T07:41:44.778Z,70.82
2022-08-29T07:42:44.784Z,67.52
2022-08-29T07:43:44.771Z,73.96
2022-08-29T07:44:44.753Z,76.74
2022-08-29T07:45:44.893Z,74.17
2022-08-29T07:46:44.759Z,74.90
2022-08-29T07:47:44.735Z,73.55
2022-08-29T07:48:44.741Z,69.49
2022-08-29T07:49:44.744Z,75.81
2022-08-29T07:50:44.747Z,66.56
2022-08-29T07:51:44.917Z,73.90
2022-08-29T07:52:44.732Z,73.77
2022-08-29T07:53:44.719Z,70.69
2022-08-29T07:54:44.707Z,76.54
2022-08-29T07:55:44.703Z,72.64
2022-08-29T07:56:44.793Z,72.35
2022-08-29T07:57:44.691Z,73.96
2022-08-29T07:58:44.704Z,79.36
2022-08-29T07:59:44.666Z,78.89
2022-08-29T08:00:44.674Z,68.49
2022-08-29T08:01:44.780Z,68.14
2022-08-29T08:02:44.726Z,72.42
2022-08-29T08:03:44.656Z,72.15
2022-08-29T08:04:44.672Z,75.01
2022-08-29T08:05:44.664Z,73.30
2022-08-29T08:06:44.655Z,70.71
2022-08-29T08:07:44.673Z,73.03
2022-08-29T08:08:44.641Z,71.34
2022-08-29T08:09:44.631Z,73.26
2022-08-29T08:10:47.836Z,75.86
2022-08-29T08:11:44.649Z,72.59
2022-08-29T08:12:44.722Z,82.01
2022-08-29T08:13:44.607Z,78.55
2022-08-29T08:14:44.604Z,72.25
2022-08-29T08:15:44.613Z,72.63
2022-08-29T08:16:44.932Z,72.73
2022-08-29T08:17:44.567Z,72.13
2022-08-29T08:18:44.718Z,73.47
2022-08-29T08:19:44.575Z,72.24
2022-08-29T08:20:44.575Z,71.02
2022-08-29T08:21:49.963Z,78.69
2022-08-29T08:22:44.555Z,76.89
2022-08-29T08:23:44.671Z,69.97
2022-08-29T08:24:44.538Z,64.74
2022-08-29T08:25:44.545Z,74.77
2022-08-29T08:26:45.448Z,75.92
2022-08-29T08:27:44.520Z,70.25
2022-08-29T08:28:44.579Z,71.96
2022-08-29T08:29:44.564Z,80.42
2022-08-29T08:30:44.531Z,66.86
2022-08-29T08:31:44.512Z,66.24
2022-08-29T08:32:47.423Z,65.42
2022-08-29T08:33:45.565Z,75.29
2022-08-29T08:34:44.596Z,71.75
2022-08-29T08:35:46.838Z,74.22
2022-08-29T08:36:44.487Z,72.84
2022-08-29T08:37:44.483Z,69.98
2022-08-29T08:38:44.478Z,73.55
2022-08-29T08:39:44.457Z,71.95
2022-08-29T08:40:44.539Z,71.31
2022-08-29T08:41:44.474Z,66.71
2022-08-29T08:42:44.461Z,80.54
2022-08-29T08:43:44.470Z,64.50
2022-08-29T08:44:44.466Z,66.31
2022-08-29T08:45:44.564Z,74.80
2022-08-29T08:46:44.562Z,70.38
2022-08-29T08:47:45.100Z,76.25
2022-08-29T08:48:44.450Z,71.56
2022-08-29T08:49:44.426Z,74.31
2022-08-29T08:50:44.453Z,76.03
2022-08-29T08:51:44.633Z,75.39
2022-08-29T08:52:44.419Z,80.46
2022-08-29T08:53:44.394Z,78.69
2022-08-29T08:54:44.395Z,70.80
2022-08-29T08:55:44.387Z,70.56
2022-08-29T08:56:44.522Z,76.88
2022-08-29T08:57:44.459Z,71.47
2022-08-29T08:58:44.363Z,72.19
2022-08-29T08:59:45.410Z,72.45
2022-08-29T09:00:44.366Z,80.09
2022-08-29T09:01:44.460Z,72.48
2022-08-29T09:02:44.566Z,75.14
2022-08-29T09:03:44.359Z,73.49
2022-08-29T09:04:44.336Z,72.51
2022-08-29T09:05:48.973Z,73.45
2022-08-29T09:06:45.329Z,66.41
2022-08-29T09:07:44.435Z,72.47
2022-08-29T09:08:44.303Z,64.84
2022-08-29T09:09:44.343Z,80.74
2022-08-29T09:10:44.323Z,74.84
2022-08-29T09:11:44.318Z,72.15
2022-08-29T09:12:44.302Z,76.43
2022-08-29T09:13:44.327Z,73.59
2022-08-29T09:14:44.287Z,73.47
2022-08-29T09:15:44.289Z,58.35
2022-08-29T09:16:44.374Z,75.98
2022-08-29T09:17:44.274Z,73.15
2022-08-29T09:18:44.312Z,73.44
2022-08-29T09:19:45.255Z,73.46
2022-08-29T09:20:44.352Z,67.63
2022-08-29T09:21:44.240Z,74.66
2022-08-29T09:22:44.239Z,72.17
2022-08-29T09:23:44.391Z,74.19
2022-08-29T09:24:44.385Z,70.85
2022-08-29T09:25:44.238Z,69.98
2022-08-29T09:26:44.229Z,75.56
2022-08-29T09:27:44.916Z,66.49
2022-08-29T09:28:44.213Z,79.59
2022-08-29T09:29:44.305Z,73.60
2022-08-29T09:30:44.273Z,68.30
2022-08-29T09:31:44.320Z,65.32
2022-08-29T09:32:44.189Z,74.48
2022-08-29T09:33:44.182Z,64.90
2022-08-29T09:35:07.989Z,77.78
2022-08-29T09:35:46.318Z,72.46
2022-08-29T09:36:46.054Z,66.25
2022-08-29T09:37:44.160Z,69.74
2022-08-29T09:38:44.150Z,71.80
2022-08-29T09:39:46.020Z,69.84
2022-08-29T09:40:44.230Z,69.71
2022-08-29T09:41:44.242Z,74.30
2022-08-29T09:42:44.120Z,74.96
2022-08-29T09:43:44.119Z,72.30
2022-08-29T09:44:44.927Z,72.03
2022-08-29T09:45:44.156Z,72.36
2022-08-29T09:46:44.202Z,64.28
2022-08-29T09:47:44.120Z,71.31
2022-08-29T09:48:44.088Z,71.25
2022-08-29T09:49:44.087Z,82.19
2022-08-29T09:50:44.098Z,77.36
2022-08-29T09:51:44.077Z,70.84
2022-08-29T09:52:44.117Z,66.13
2022-08-29T09:53:44.053Z,74.34
2022-08-29T09:54:44.065Z,72.16
2022-08-29T09:55:45.293Z,71.90
2022-08-29T09:56:47.996Z,69.66
2022-08-29T09:57:44.077Z,72.57
2022-08-29T09:58:44.044Z,73.22
2022-08-29T09:59:45.266Z,73.16
2022-08-29T10:00:44.124Z,75.09
2022-08-29T10:01:44.061Z,63.12
2022-08-29T10:02:44.174Z,74.03
2022-08-29T10:03:44.031Z,71.39
2022-08-29T10:04:44.039Z,75.22
2022-08-29T10:05:44.009Z,70.94
2022-08-29T10:06:48.408Z,67.35
2022-08-29T10:07:46.070Z,59.85
2022-08-29T10:08:44.103Z,74.08
2022-08-29T10:09:43.978Z,80.63
2022-08-29T10:10:43.980Z,66.36
2022-08-29T10:11:43.975Z,70.39
2022-08-29T10:12:43.969Z,73.29
2022-08-29T10:13:43.955Z,71.81
2022-08-29T10:14:50.329Z,71.78
2022-08-29T10:15:51.038Z,74.83
2022-08-29T10:16:46.007Z,65.83
2022-08-29T10:17:43.944Z,74.47
2022-08-29T10:18:43.921Z,67.72
2022-08-29T10:19:43.944Z,76.52
2022-08-29T10:20:43.905Z,63.97
2022-08-29T10:21:43.919Z,61.81
2022-08-29T10:22:43.909Z,72.21
2022-08-29T10:23:43.898Z,63.04
2022-08-29T10:24:43.898Z,73.44
2022-08-29T10:25:43.925Z,72.54
2022-08-29T10:26:43.912Z,71.14
2022-08-29T10:27:43.879Z,76.04
2022-08-29T10:28:43.864Z,77.30
2022-08-29T10:29:43.899Z,68.16
2022-08-29T10:30:43.988Z,71.92
2022-08-29T10:31:43.987Z,76.89
2022-08-29T10:32:43.853Z,69.75
2022-08-29T10:33:43.835Z,78.14
2022-08-29T10:34:43.848Z,71.57
2022-08-29T10:36:15.898Z,73.69
2022-08-29T10:36:43.841Z,80.14
2022-08-29T10:37:43.829Z,72.01
2022-08-29T10:38:43.826Z,77.39
2022-08-29T10:39:43.822Z,72.29
2022-08-29T10:40:43.941Z,74.55
2022-08-29T10:41:48.313Z,73.28
2022-08-29T10:42:44.803Z,66.18
2022-08-29T10:43:43.782Z,77.28
2022-08-29T10:44:43.791Z,74.58
2022-08-29T10:45:43.876Z,68.42
2022-08-29T10:46:43.805Z,73.70
2022-08-29T10:47:43.779Z,75.79
2022-08-29T10:48:43.787Z,72.46
2022-08-29T10:49:44.972Z,72.11
2022-08-29T10:50:45.316Z,70.42
2022-08-29T10:51:44.779Z,67.73
2022-08-29T10:52:43.756Z,78.88
2022-08-29T10:53:43.742Z,68.15
2022-08-29T10:54:43.743Z,73.12
2022-08-29T10:55:43.724Z,70.29
2022-08-29T10:56:43.742Z,74.41
2022-08-29T10:57:43.829Z,70.71
2022-08-29T10:58:43.717Z,72.69
2022-08-29T10:59:43.704Z,62.62
2022-08-29T11:00:43.731Z,75.39
2022-08-29T11:01:44.769Z,68.92
2022-08-29T11:02:43.797Z,72.58
2022-08-29T11:03:43.702Z,75.13
2022-08-29T11:04:43.682Z,75.90
2022-08-29T11:05:43.690Z,72.42
2022-08-29T11:06:43.691Z,75.35
2022-08-29T11:07:43.674Z,70.40
2022-08-29T11:08:43.684Z,69.57
2022-08-29T11:09:43.660Z,81.43
2022-08-29T11:10:43.639Z,75.96
2022-08-29T11:11:43.658Z,73.02
2022-08-29T11:12:43.651Z,78.64
2022-08-29T11:13:43.652Z,69.66
2022-08-29T11:14:43.631Z,74.64
2022-08-29T11:15:43.613Z,79.53
2022-08-29T11:16:43.650Z,74.73
2022-08-29T11:17:43.618Z,69.10
2022-08-29T11:18:43.614Z,70.84
2022-08-29T11:19:43.619Z,72.10
2022-08-29T11:20:43.604Z,62.85
2022-08-29T11:21:43.595Z,71.99
2022-08-29T11:22:43.569Z,74.53
2022-08-29T11:23:43.583Z,70.34
2022-08-29T11:24:47.029Z,68.79
2022-08-29T11:25:44.566Z,73.47
2022-08-29T11:26:43.572Z,68.13
2022-08-29T11:27:43.562Z,70.19
2022-08-29T11:29:43.558Z,70.60
2022-08-29T11:30:46.080Z,68.12
2022-08-29T11:31:43.612Z,77.53
2022-08-29T11:32:43.524Z,73.75
2022-08-29T11:33:43.529Z,73.67
2022-08-29T11:34:43.510Z,72.80
2022-08-29T11:35:43.638Z,74.04
2022-08-29T11:36:43.519Z,77.48
2022-08-29T11:37:43.485Z,76.53
2022-08-29T11:38:43.498Z,64.19
2022-08-29T11:39:43.495Z,74.42
2022-08-29T11:41:44.654Z,80.09
2022-08-29T11:42:51.011Z,73.52
2022-08-29T11:43:45.471Z,67.01
2022-08-29T11:44:43.457Z,68.94
2022-08-29T11:45:43.448Z,79.76
2022-08-29T11:46:43.522Z,79.18
2022-08-29T11:47:43.578Z,66.09
2022-08-29T11:48:43.438Z,66.71
2022-08-29T11:49:43.451Z,70.14
2022-08-29T11:50:43.464Z,74.97
2022-08-29T11:51:43.420Z,68.20
2022-08-29T11:52:43.537Z,71.82
2022-08-29T11:53:43.398Z,74.85
2022-08-29T11:54:43.401Z,70.07
2022-08-29T11:55:43.406Z,73.69
2022-08-29T11:56:43.404Z,76.08
2022-08-29T11:57:43.389Z,68.66
2022-08-29T11:58:43.482Z,71.74
2022-08-29T11:59:43.373Z,73.90
2022-08-29T12:00:43.382Z,76.34
2022-08-29T12:01:43.400Z,73.09
2022-08-29T12:02:48.294Z,68.04
2022-08-29T12:03:44.450Z,76.68
2022-08-29T12:04:43.364Z,79.01
2022-08-29T12:05:43.329Z,70.65
2022-08-29T12:06:43.317Z,72.96
2022-08-29T12:07:43.339Z,74.51
2022-08-29T12:08:43.322Z,75.06
2022-08-29T12:09:43.344Z,71.36
2022-08-29T12:10:43.305Z,76.81
2022-08-29T12:11:43.315Z,69.74
2022-08-29T12:12:43.310Z,80.31
2022-08-29T12:13:43.292Z,76.09
2022-08-29T12:14:43.390Z,72.59
2022-08-29T12:15:43.281Z,68.57
2022-08-29T12:16:43.360Z,75.94
2022-08-29T12:18:00.991Z,75.91
2022-08-29T12:18:45.283Z,67.28
2022-08-29T12:19:43.269Z,73.14
2022-08-29T12:20:43.308Z,69.66
2022-08-29T12:21:43.252Z,74.88
2022-08-29T12:23:43.234Z,75.48
2022-08-29T12:24:43.243Z,64.71
2022-08-29T12:25:43.367Z,76.56
2022-08-29T12:26:43.210Z,76.96
2022-08-29T12:27:43.224Z,72.68
2022-08-29T12:28:43.211Z,70.29
2022-08-29T12:29:44.727Z,77.48
2022-08-29T12:30:43.209Z,76.11
2022-08-29T12:31:56.376Z,74.04
2022-08-29T12:32:45.211Z,74.15
2022-08-29T12:33:43.192Z,68.76
2022-08-29T12:34:43.164Z,75.34
2022-08-29T12:35:43.177Z,73.07
2022-08-29T12:36:52.443Z,78.39
2022-08-29T12:37:44.175Z,78.98
2022-08-29T12:38:43.158Z,70.64
2022-08-29T12:39:43.187Z,69.82
2022-08-29T12:40:43.198Z,83.04
2022-08-29T12:41:43.151Z,73.64
2022-08-29T12:42:43.201Z,77.48
2022-08-29T12:43:43.133Z,73.13
2022-08-29T12:44:43.257Z,74.01
2022-08-29T12:45:43.129Z,66.66
2022-08-29T12:46:43.156Z,80.74
2022-08-29T12:47:45.985Z,75.96
2022-08-29T12:48:43.101Z,73.29
2022-08-29T12:49:43.089Z,79.70
2022-08-29T12:50:43.168Z,78.58
2022-08-29T12:51:43.110Z,65.78
2022-08-29T12:52:43.098Z,69.98
2022-08-29T12:53:43.091Z,70.81
2022-08-29T12:54:45.910Z,73.57
2022-08-29T12:55:43.060Z,72.98
2022-08-29T12:56:43.065Z,75.12
2022-08-29T12:57:43.048Z,72.31
2022-08-29T12:58:43.057Z,68.62